Terminal Aerodrome Forecast
Issued by NWS

Home | Current Version | Previous Version | Text Only | Print | Product List | Glossary On
Versions: 1 2 3 4 5 6 7 8 9 10 11 12 13 14 15 16 17 18 19 20 21 22 23 24 25 26 27 28 29 30 31 32 33 34 35 36 37 38 39 40 41 42 43 44 45 46 47 48 49 50
000
FTUS46 KEKA 301148
TAFACV
TAF
KACV 301148Z 3012/3112 12004KT P6SM VCSH SCT025 OVC060
     FM301500 16005KT 6SM -RA BR SCT012 BKN025 OVC060
     FM301800 28006KT P6SM VCSH SCT015 BKN035
     FM302100 30009KT P6SM SCT020
     FM310100 32008KT P6SM SCT015
     FM310600 35003KT 6SM BR SCT012
     FM311000 VRB03KT 4SM BR BKN006=

USA.gov is the U.S. government's official web portal to all federal, state and local government web resources and services.